Time;durP1;ratioP1;P1;durP2;ratioP2;P2;SDS_P1;SDS_P2;PMS_P1;PMS_P2;Temp;Humidity;BMP_temperature;BMP_pressure;BME280_temperature;BME280_humidity;BME280_pressure;Samples;Min_cycle;Max_cycle;Signal;HPM_P1;HPM_P2
2021/11/15 05:06:40;;;;;;;;;60.50;47.75;;;;;;;;5755890;31;10000001;-57
2021/11/15 11:07:23;;;;;;;;;47.25;40.00;;;;;;;;6493039;39;9022;-57
2021/11/15 11:13:37;;;;;;;;;50.00;39.50;;;;;;;;6489910;31;8891;-58
2021/11/15 11:20:08;;;;;;;;;55.25;45.50;;;;;;;;6490037;46;8838;-58
2021/11/15 11:26:21;;;;;;;;;57.50;45.25;;;;;;;;6489561;39;8954;-59
2021/11/15 11:32:28;;;;;;;;;54.75;44.00;;;;;;;;6489764;39;8845;-57
2021/11/15 11:38:36;;;;;;;;;51.50;41.75;;;;;;;;6488933;31;8904;-57
2021/11/15 11:44:39;;;;;;;;;47.25;40.25;;;;;;;;6488726;31;9001;-58
2021/11/15 11:50:50;;;;;;;;;59.50;47.00;;;;;;;;6490528;31;8898;-56
2021/11/15 11:57:10;;;;;;;;;52.50;39.75;;;;;;;;6489470;39;8877;-57
2021/11/15 12:03:14;;;;;;;;;55.50;45.75;;;;;;;;6490169;31;9088;-59
2021/11/15 12:09:18;;;;;;;;;46.25;39.75;;;;;;;;6524835;36;8895;-58
2021/11/15 12:15:32;;;;;;;;;55.50;43.75;;;;;;;;6490080;39;8888;-57
2021/11/15 12:21:37;;;;;;;;;52.00;41.00;;;;;;;;6490040;31;9635;-57
2021/11/15 12:28:00;;;;;;;;;45.00;38.50;;;;;;;;6488057;31;8955;-57
2021/11/15 12:34:04;;;;;;;;;34.50;30.75;;;;;;;;6488924;31;8875;-56
2021/11/15 12:40:09;;;;;;;;;39.00;34.25;;;;;;;;6487868;39;9022;-59
2021/11/15 12:46:18;;;;;;;;;51.00;43.50;;;;;;;;6489119;31;8976;-57
2021/11/15 12:52:30;;;;;;;;;48.25;40.50;;;;;;;;6489772;39;8890;-58
2021/11/15 12:58:33;;;;;;;;;37.50;33.00;;;;;;;;6491071;39;9919;-53
2021/11/15 13:04:36;;;;;;;;;40.50;35.25;;;;;;;;6490851;31;9055;-58
2021/11/15 13:10:41;;;;;;;;;35.50;35.50;;;;;;;;6490585;39;9033;-58
2021/11/15 13:16:46;;;;;;;;;39.00;36.75;;;;;;;;6491234;46;8857;-57
2021/11/15 13:22:53;;;;;;;;;47.75;39.50;;;;;;;;6489211;39;9109;-57
2021/11/15 13:28:55;;;;;;;;;22.50;22.50;;;;;;;;6490404;31;8845;-55
2021/11/15 13:34:58;;;;;;;;;36.00;32.75;;;;;;;;6492237;39;8962;-58
2021/11/15 13:41:02;;;;;;;;;30.50;27.50;;;;;;;;6489570;31;8865;-57
2021/11/15 13:47:05;;;;;;;;;34.75;30.50;;;;;;;;6490626;31;8867;-57
2021/11/15 13:53:09;;;;;;;;;33.75;30.75;;;;;;;;6491234;39;8881;-55
2021/11/15 13:59:14;;;;;;;;;33.25;31.25;;;;;;;;6490757;39;8855;-56
2021/11/15 14:05:23;;;;;;;;;40.50;32.50;;;;;;;;6491486;39;8932;-59
2021/11/15 14:11:26;;;;;;;;;36.75;35.25;;;;;;;;6490207;39;8953;-58
2021/11/15 14:17:30;;;;;;;;;35.00;32.50;;;;;;;;6490596;31;8949;-58
2021/11/15 14:23:34;;;;;;;;;35.00;29.00;;;;;;;;6489703;39;8913;-58
2021/11/15 14:29:39;;;;;;;;;40.00;36.75;;;;;;;;6490603;39;8984;-57
2021/11/15 14:35:43;;;;;;;;;38.75;36.25;;;;;;;;6491739;31;8897;-58
2021/11/15 14:41:46;;;;;;;;;26.75;23.25;;;;;;;;6490252;31;8957;-58
2021/11/15 14:48:01;;;;;;;;;33.25;28.00;;;;;;;;6491379;39;8845;-59
2021/11/15 14:54:04;;;;;;;;;27.75;27.75;;;;;;;;6489764;31;8886;-59
2021/11/15 15:00:10;;;;;;;;;26.75;24.50;;;;;;;;6489390;39;8941;-58
2021/11/15 15:06:13;;;;;;;;;33.00;28.75;;;;;;;;6491291;31;8966;-57
2021/11/15 15:12:16;;;;;;;;;33.75;30.00;;;;;;;;6490868;31;9592;-58
2021/11/15 15:18:20;;;;;;;;;35.50;32.00;;;;;;;;6490093;46;8834;-58
2021/11/15 15:24:24;;;;;;;;;37.25;36.25;;;;;;;;6489307;31;8953;-59
2021/11/15 15:30:29;;;;;;;;;35.00;30.50;;;;;;;;6490124;46;8853;-59
2021/11/15 15:36:34;;;;;;;;;39.25;32.25;;;;;;;;6490323;46;8985;-57
2021/11/15 15:42:36;;;;;;;;;43.50;38.75;;;;;;;;6489468;46;9024;-58
2021/11/15 15:48:39;;;;;;;;;39.00;35.75;;;;;;;;6490775;31;8861;-59
2021/11/15 15:54:41;;;;;;;;;39.25;32.75;;;;;;;;6490643;31;8881;-58
2021/11/15 16:00:44;;;;;;;;;32.50;32.00;;;;;;;;6489605;39;8968;-58
2021/11/15 16:19:14;;;;;;;;;26.25;25.25;;;;;;;;6490740;31;9017;-58
2021/11/15 16:25:16;;;;;;;;;26.25;26.25;;;;;;;;6489480;39;8956;-58
2021/11/15 16:31:18;;;;;;;;;35.00;32.00;;;;;;;;6491169;31;8913;-58
2021/11/15 16:37:23;;;;;;;;;34.25;28.50;;;;;;;;6491467;39;8999;-58
2021/11/15 16:43:26;;;;;;;;;39.50;34.75;;;;;;;;6490544;39;8949;-56
2021/11/15 16:49:28;;;;;;;;;43.50;39.00;;;;;;;;6491824;31;8821;-58
2021/11/15 16:55:32;;;;;;;;;38.50;35.75;;;;;;;;6491183;46;8885;-59
2021/11/15 17:01:40;;;;;;;;;43.75;37.75;;;;;;;;6491829;39;9545;-58
2021/11/15 17:07:46;;;;;;;;;34.75;34.50;;;;;;;;6491619;39;8889;-58
2021/11/15 17:13:53;;;;;;;;;47.00;40.75;;;;;;;;6491522;31;8894;-58
2021/11/15 17:20:00;;;;;;;;;41.50;38.00;;;;;;;;6491833;39;8890;-57
2021/11/15 17:26:05;;;;;;;;;42.50;40.25;;;;;;;;6490394;39;8950;-57
2021/11/15 17:32:08;;;;;;;;;27.00;20.25;;;;;;;;6490877;39;8913;-59
2021/11/15 17:38:16;;;;;;;;;43.25;40.25;;;;;;;;6491360;39;9059;-58
2021/11/15 17:44:18;;;;;;;;;35.75;33.50;;;;;;;;6490932;31;9032;-57
2021/11/15 17:50:23;;;;;;;;;39.00;38.25;;;;;;;;6491317;39;8862;-58
2021/11/15 17:56:35;;;;;;;;;41.75;37.75;;;;;;;;6490113;39;8868;-57
2021/11/15 18:02:37;;;;;;;;;40.25;36.75;;;;;;;;6491076;46;8964;-57
2021/11/15 18:08:44;;;;;;;;;44.50;41.75;;;;;;;;6490570;39;8849;-59
2021/11/15 18:14:54;;;;;;;;;41.75;37.25;;;;;;;;6490531;39;8905;-58
2021/11/15 18:20:57;;;;;;;;;38.00;36.00;;;;;;;;6491062;39;8866;-58
2021/11/15 18:27:01;;;;;;;;;45.75;40.25;;;;;;;;6490065;46;8902;-58
2021/11/15 18:33:04;;;;;;;;;41.00;40.25;;;;;;;;6492263;31;8810;-58
2021/11/15 18:39:06;;;;;;;;;47.25;40.25;;;;;;;;6490556;39;8894;-59
2021/11/15 18:45:13;;;;;;;;;50.75;44.75;;;;;;;;6490572;46;8904;-59
2021/11/15 18:51:18;;;;;;;;;44.75;40.50;;;;;;;;6491308;31;8881;-57
2021/11/15 18:57:22;;;;;;;;;48.00;43.50;;;;;;;;6489905;46;8951;-58
2021/11/15 19:03:25;;;;;;;;;50.75;43.25;;;;;;;;6490841;46;9018;-58
2021/11/15 19:09:32;;;;;;;;;51.25;45.00;;;;;;;;6489431;39;8858;-57
2021/11/15 19:15:36;;;;;;;;;52.50;43.00;;;;;;;;6491077;39;8941;-58
2021/11/15 19:21:41;;;;;;;;;53.50;46.00;;;;;;;;6491703;31;8873;-57
2021/11/15 19:28:04;;;;;;;;;50.75;42.75;;;;;;;;6490125;31;9375;-58
2021/11/15 19:34:09;;;;;;;;;49.50;41.75;;;;;;;;6490762;39;8854;-57
2021/11/15 19:40:16;;;;;;;;;52.25;44.00;;;;;;;;6490173;46;8882;-57
2021/11/15 19:46:19;;;;;;;;;48.50;44.25;;;;;;;;6491035;39;8908;-57
2021/11/15 19:52:22;;;;;;;;;56.00;46.75;;;;;;;;6490397;31;8921;-58
2021/11/15 19:58:40;;;;;;;;;54.75;44.75;;;;;;;;6490911;31;8806;-57
2021/11/15 20:04:45;;;;;;;;;52.00;46.00;;;;;;;;6493119;31;9663;-58
2021/11/15 20:10:48;;;;;;;;;54.25;47.25;;;;;;;;6493939;31;8996;-58
2021/11/15 20:16:50;;;;;;;;;63.75;52.00;;;;;;;;6492521;39;8799;-59
2021/11/15 20:23:10;;;;;;;;;62.50;51.75;;;;;;;;6491934;39;8918;-57
2021/11/15 20:29:12;;;;;;;;;67.50;53.00;;;;;;;;6492858;39;8811;-59
2021/11/15 20:35:23;;;;;;;;;62.75;53.50;;;;;;;;6492863;31;8861;-57
2021/11/15 20:41:25;;;;;;;;;59.25;48.00;;;;;;;;6491214;31;8867;-57
2021/11/15 20:47:28;;;;;;;;;70.50;55.50;;;;;;;;6492153;39;8924;-59
2021/11/15 20:53:31;;;;;;;;;64.00;54.00;;;;;;;;6491462;31;8834;-58
2021/11/15 20:59:33;;;;;;;;;71.50;56.25;;;;;;;;6491803;31;8881;-57
2021/11/15 21:05:36;;;;;;;;;64.25;52.25;;;;;;;;6490309;31;8938;-58
2021/11/15 21:11:39;;;;;;;;;66.50;53.00;;;;;;;;6490554;31;8870;-58
2021/11/15 21:17:44;;;;;;;;;70.25;57.00;;;;;;;;6490952;39;9478;-58
2021/11/15 21:23:47;;;;;;;;;68.50;56.00;;;;;;;;6489807;39;8909;-59
2021/11/15 21:29:49;;;;;;;;;74.25;60.50;;;;;;;;6490359;46;8871;-59
2021/11/15 21:35:51;;;;;;;;;71.75;57.00;;;;;;;;6489798;46;8924;-58
2021/11/15 21:41:56;;;;;;;;;78.75;61.00;;;;;;;;6489778;31;8991;-57
2021/11/15 21:47:58;;;;;;;;;79.75;59.25;;;;;;;;6491045;31;9519;-58
2021/11/15 21:54:03;;;;;;;;;72.75;59.50;;;;;;;;6489474;46;8874;-58
2021/11/15 22:00:11;;;;;;;;;72.50;57.75;;;;;;;;6489686;31;8902;-57
2021/11/15 22:06:15;;;;;;;;;72.25;57.50;;;;;;;;6489456;46;8945;-58
2021/11/15 22:12:18;;;;;;;;;66.75;55.00;;;;;;;;6489666;31;8927;-58
2021/11/15 22:18:29;;;;;;;;;68.75;57.50;;;;;;;;6490113;31;8894;-59
2021/11/15 22:24:33;;;;;;;;;73.00;55.75;;;;;;;;6488323;46;8971;-58
2021/11/15 22:30:36;;;;;;;;;73.00;57.75;;;;;;;;6490061;46;8934;-58
2021/11/15 22:36:40;;;;;;;;;74.75;61.75;;;;;;;;6489066;39;8953;-58
2021/11/15 22:42:43;;;;;;;;;68.75;56.50;;;;;;;;6489538;46;8866;-57
2021/11/15 22:48:45;;;;;;;;;77.25;61.00;;;;;;;;6490437;31;9028;-59
2021/11/15 22:54:48;;;;;;;;;68.50;51.00;;;;;;;;6490291;39;9494;-58
2021/11/15 23:00:55;;;;;;;;;69.00;54.75;;;;;;;;6489793;46;8897;-57
2021/11/15 23:07:00;;;;;;;;;56.50;48.50;;;;;;;;6488129;46;8929;-58
2021/11/15 23:13:02;;;;;;;;;72.00;59.25;;;;;;;;6490506;31;8841;-55
2021/11/15 23:19:04;;;;;;;;;71.25;57.00;;;;;;;;6489587;46;8831;-57
2021/11/15 23:25:08;;;;;;;;;70.00;56.00;;;;;;;;6489157;31;8906;-57
2021/11/15 23:31:14;;;;;;;;;71.25;56.50;;;;;;;;6488961;31;8835;-57
2021/11/15 23:37:18;;;;;;;;;68.00;55.25;;;;;;;;6488652;31;8873;-56
2021/11/15 23:43:22;;;;;;;;;74.50;59.25;;;;;;;;6489742;46;8831;-57
2021/11/15 23:49:27;;;;;;;;;72.25;58.75;;;;;;;;6489503;31;8932;-56
2021/11/15 23:55:29;;;;;;;;;71.75;55.00;;;;;;;;6488348;47;8882;-56
